createdAt,value
2018-06-02T00:02:16.418Z,29.32
2018-06-02T00:04:48.468Z,29.32
2018-06-02T00:07:21.551Z,29.33
2018-06-02T00:12:43.465Z,29.31
2018-06-02T00:15:15.219Z,29.29
2018-06-02T00:17:47.309Z,29.29
2018-06-02T00:20:19.120Z,29.30
2018-06-02T00:22:51.087Z,29.33
2018-06-02T00:25:23.095Z,29.33
2018-06-02T00:27:54.586Z,29.32
2018-06-02T00:30:26.258Z,29.32
2018-06-02T00:32:58.845Z,29.30
2018-06-02T00:35:30.578Z,29.31
2018-06-02T00:38:02.967Z,29.30
2018-06-02T00:40:35.133Z,29.32
2018-06-02T00:43:07.103Z,29.31
2018-06-02T00:45:39.243Z,29.32
2018-06-02T00:48:11.262Z,29.30
2018-06-02T00:50:43.217Z,29.29
2018-06-02T00:53:15.221Z,29.28
2018-06-02T00:55:47.241Z,29.30
2018-06-02T00:58:19.488Z,29.30
2018-06-02T01:00:51.263Z,29.29
2018-06-02T01:03:23.247Z,29.26
2018-06-02T01:05:55.253Z,29.24
2018-06-02T01:08:28.888Z,29.21
2018-06-02T01:11:01.286Z,29.22
2018-06-02T01:13:33.291Z,29.18
2018-06-02T01:16:05.242Z,29.16
2018-06-02T01:18:37.250Z,29.13
2018-06-02T01:21:09.278Z,29.13
2018-06-02T01:23:42.599Z,29.09
2018-06-02T01:26:13.096Z,29.05
2018-06-02T01:29:23.714Z,28.98
2018-06-02T01:31:55.496Z,28.98
2018-06-02T01:34:28.536Z,28.94
2018-06-02T01:36:59.064Z,28.94
2018-06-02T01:39:31.226Z,28.90
2018-06-02T01:42:03.567Z,28.83
2018-06-02T01:44:34.503Z,28.78
2018-06-02T01:47:06.296Z,28.74
2018-06-02T01:49:38.538Z,28.72
2018-06-02T01:53:09.599Z,28.69
2018-06-02T01:57:19.490Z,28.62
2018-06-02T01:59:51.268Z,28.62
2018-06-02T02:02:23.258Z,28.57
2018-06-02T02:04:56.284Z,28.52
2018-06-02T02:07:28.502Z,28.46
2018-06-02T02:09:59.492Z,28.47
2018-06-02T02:12:32.484Z,28.42
2018-06-02T02:15:04.506Z,28.38
2018-06-02T02:18:43.509Z,28.34
2018-06-02T02:21:15.237Z,28.29
2018-06-02T02:23:47.266Z,28.24
2018-06-02T02:26:19.253Z,28.22
2018-06-02T02:28:51.221Z,28.19
2018-06-02T02:31:23.244Z,28.15
2018-06-02T02:35:00.480Z,28.08
2018-06-02T02:37:32.240Z,28.03
2018-06-02T02:42:25.948Z,27.97
2018-06-02T02:46:17.574Z,27.88
2018-06-02T02:48:48.339Z,27.88
2018-06-02T02:51:20.424Z,27.87
2018-06-02T02:53:52.302Z,27.85
2018-06-02T02:56:24.287Z,27.81
2018-06-02T02:58:56.266Z,27.79
2018-06-02T03:01:29.085Z,27.74
2018-06-02T03:04:02.479Z,27.72
2018-06-02T03:06:34.567Z,27.67
2018-06-02T03:09:07.497Z,27.64
2018-06-02T03:11:40.565Z,27.61
2018-06-02T03:14:12.570Z,27.54
2018-06-02T03:16:45.050Z,27.51
2018-06-02T03:19:16.562Z,27.48
2018-06-02T03:21:49.233Z,27.45
2018-06-02T03:24:21.551Z,27.41
2018-06-02T03:26:54.626Z,27.39
2018-06-02T03:31:26.613Z,27.36
2018-06-02T03:33:57.409Z,27.32
2018-06-02T03:36:29.258Z,27.30
2018-06-02T03:39:01.262Z,27.28
2018-06-02T03:41:33.410Z,27.25
2018-06-02T03:44:06.114Z,27.22
2018-06-02T03:47:10.476Z,27.15
2018-06-02T03:52:15.591Z,27.09
2018-06-02T03:54:47.405Z,27.06
2018-06-02T03:57:19.492Z,27.05
2018-06-02T03:59:51.530Z,27.04
2018-06-02T04:02:24.565Z,27.10
2018-06-02T04:04:57.563Z,27.14
2018-06-02T04:07:28.101Z,27.15
2018-06-02T04:10:00.502Z,27.14
2018-06-02T04:12:32.505Z,27.12
2018-06-02T04:15:04.488Z,27.10
2018-06-02T04:17:36.574Z,27.03
2018-06-02T04:20:07.404Z,27.00
2018-06-02T04:22:39.312Z,26.95
2018-06-02T04:25:11.252Z,26.92
2018-06-02T04:27:43.263Z,26.88
2018-06-02T04:30:15.241Z,26.84
2018-06-02T04:32:47.529Z,26.80
2018-06-02T04:35:19.538Z,26.79
2018-06-02T04:37:51.616Z,26.77
2018-06-02T04:40:22.537Z,26.76
2018-06-02T04:42:56.032Z,26.74
2018-06-02T04:45:28.525Z,26.70
2018-06-02T04:48:00.521Z,26.69
2018-06-02T04:50:32.626Z,26.65
2018-06-02T04:53:03.400Z,26.59
2018-06-02T04:55:40.111Z,26.55
2018-06-02T04:58:12.528Z,26.52
2018-06-02T05:00:44.544Z,26.50
2018-06-02T05:03:16.627Z,26.45
2018-06-02T05:05:48.537Z,26.44
2018-06-02T05:08:20.539Z,26.42
2018-06-02T05:10:52.531Z,26.35
2018-06-02T05:13:23.333Z,26.34
2018-06-02T05:15:55.538Z,26.34
2018-06-02T05:18:29.710Z,26.32
2018-06-02T05:21:01.582Z,26.29
2018-06-02T05:23:32.121Z,26.26
2018-06-02T05:26:04.267Z,26.24
2018-06-02T05:28:36.225Z,26.21
2018-06-02T05:31:08.270Z,26.19
2018-06-02T05:33:40.273Z,26.15
2018-06-02T05:36:12.263Z,26.16
2018-06-02T05:38:44.579Z,26.14
2018-06-02T05:41:15.384Z,26.13
2018-06-02T05:43:47.271Z,26.11
2018-06-02T05:46:20.263Z,26.06
2018-06-02T05:48:52.248Z,26.03
2018-06-02T05:53:25.791Z,26.01
2018-06-02T05:55:57.565Z,26.02
2018-06-02T05:58:29.595Z,26.02
2018-06-02T06:01:00.108Z,26.01
2018-06-02T06:03:32.235Z,26.00
2018-06-02T06:06:04.220Z,25.96
2018-06-02T06:08:36.252Z,25.92
2018-06-02T06:11:08.474Z,25.89
2018-06-02T06:13:40.233Z,25.88
2018-06-02T06:17:08.534Z,25.83
2018-06-02T06:19:40.223Z,25.84
2018-06-02T06:22:12.414Z,25.83
2018-06-02T06:24:44.230Z,25.81
2018-06-02T06:27:16.216Z,25.80
2018-06-02T06:29:48.233Z,25.78
2018-06-02T06:32:20.486Z,25.77
2018-06-02T06:34:52.326Z,25.75
2018-06-02T06:37:24.369Z,25.72
2018-06-02T06:39:56.508Z,25.70
2018-06-02T06:44:33.641Z,25.70
2018-06-02T06:47:04.536Z,25.69
2018-06-02T06:49:35.382Z,25.67
2018-06-02T06:52:07.529Z,25.65
2018-06-02T06:54:39.530Z,25.63
2018-06-02T06:57:11.538Z,25.61
2018-06-02T07:02:20.750Z,25.53
2018-06-02T07:04:52.626Z,25.54
2018-06-02T07:07:23.512Z,25.51
2018-06-02T07:09:57.507Z,25.49
2018-06-02T07:12:30.677Z,25.47
2018-06-02T07:15:02.774Z,25.45
2018-06-02T07:17:36.857Z,25.45
2018-06-02T07:20:09.814Z,25.43
2018-06-02T07:22:41.865Z,25.42
2018-06-02T07:25:15.540Z,25.42
2018-06-02T07:27:49.833Z,25.39
2018-06-02T07:30:23.531Z,25.35
2018-06-02T07:32:57.687Z,25.31
2018-06-02T07:35:30.106Z,25.31
2018-06-02T07:40:15.581Z,25.29
2018-06-02T07:42:47.536Z,25.27
2018-06-02T07:45:19.563Z,25.23
2018-06-02T07:47:52.605Z,25.17
2018-06-02T07:50:26.891Z,25.14
2018-06-02T07:52:59.329Z,25.03
2018-06-02T07:55:32.748Z,24.83
2018-06-02T07:58:04.966Z,24.79
2018-06-02T08:00:37.535Z,24.77
2018-06-02T08:03:10.628Z,24.74
2018-06-02T08:05:42.877Z,24.72
2018-06-02T08:08:15.576Z,24.70
2018-06-02T08:10:48.615Z,24.69
2018-06-02T08:13:22.015Z,24.68
2018-06-02T08:15:55.733Z,24.70
2018-06-02T08:18:27.670Z,24.70
2018-06-02T08:21:00.660Z,24.68
2018-06-02T08:23:34.315Z,24.68
2018-06-02T08:26:07.539Z,24.67
2018-06-02T08:30:55.262Z,24.65
2018-06-02T08:33:28.650Z,24.65
2018-06-02T08:36:00.733Z,24.67
2018-06-02T08:38:34.771Z,24.68
2018-06-02T08:41:08.969Z,24.66
2018-06-02T08:45:18.851Z,24.67
2018-06-02T08:47:52.504Z,24.66
2018-06-02T08:50:25.524Z,24.65
2018-06-02T08:52:59.503Z,24.64
2018-06-02T08:55:33.704Z,24.64
2018-06-02T08:58:07.863Z,24.63
2018-06-02T09:00:41.626Z,24.63
2018-06-02T09:03:15.887Z,24.61
2018-06-02T09:05:49.572Z,24.57
2018-06-02T09:08:21.654Z,24.48
2018-06-02T09:10:54.646Z,24.32
2018-06-02T09:13:28.639Z,24.26
2018-06-02T09:16:00.548Z,24.30
2018-06-02T09:18:34.716Z,24.29
2018-06-02T09:21:08.840Z,24.29
2018-06-02T09:23:42.890Z,24.31
2018-06-02T09:26:16.623Z,24.31
2018-06-02T09:28:48.752Z,24.33
2018-06-02T09:31:22.842Z,24.33
2018-06-02T09:33:56.621Z,24.33
2018-06-02T09:36:28.814Z,24.32
2018-06-02T09:39:03.267Z,24.30
2018-06-02T09:41:37.886Z,24.28
2018-06-02T09:44:11.898Z,24.27
2018-06-02T09:46:43.542Z,24.26
2018-06-02T09:49:16.822Z,24.24
2018-06-02T09:51:50.351Z,24.23
2018-06-02T09:54:24.505Z,24.22
2018-06-02T09:56:56.772Z,24.22
2018-06-02T09:59:28.554Z,24.21
2018-06-02T10:02:02.953Z,24.20
2018-06-02T10:04:37.305Z,24.19
2018-06-02T10:07:11.634Z,24.19
2018-06-02T10:09:45.538Z,24.18
2018-06-02T10:12:20.252Z,24.15
2018-06-02T10:14:53.524Z,24.09
2018-06-02T10:17:26.537Z,23.99
2018-06-02T10:19:59.542Z,23.96
2018-06-02T10:22:32.612Z,23.94
2018-06-02T10:25:04.823Z,23.93
2018-06-02T10:27:38.713Z,23.90
2018-06-02T10:30:12.872Z,23.88
2018-06-02T10:32:46.884Z,23.87
2018-06-02T10:35:20.104Z,23.87
2018-06-02T10:37:54.622Z,23.87
2018-06-02T10:40:26.496Z,23.88
2018-06-02T10:42:59.630Z,23.86
2018-06-02T10:45:33.339Z,23.86
2018-06-02T10:48:07.876Z,23.85
2018-06-02T10:50:41.894Z,23.84
2018-06-02T10:53:16.110Z,23.82
2018-06-02T10:55:49.254Z,23.80
2018-06-02T10:58:23.987Z,23.80
2018-06-02T11:00:58.121Z,23.78
2018-06-02T11:03:31.746Z,23.73
2018-06-02T11:06:05.517Z,23.70
2018-06-02T11:08:39.178Z,23.69
2018-06-02T11:11:12.630Z,23.70
2018-06-02T11:13:44.510Z,23.70
2018-06-02T11:16:17.586Z,23.67
2018-06-02T11:18:51.545Z,23.62
2018-06-02T11:23:10.242Z,23.57
2018-06-02T11:25:44.683Z,23.52
2018-06-02T11:28:17.764Z,23.49
2018-06-02T11:30:51.837Z,23.45
2018-06-02T11:33:23.543Z,23.41
2018-06-02T11:35:55.760Z,23.40
2018-06-02T11:38:28.583Z,23.39
2018-06-02T11:41:01.724Z,23.38
2018-06-02T11:43:35.247Z,23.38
2018-06-02T11:46:08.515Z,23.30
2018-06-02T11:48:42.511Z,23.30
2018-06-02T11:51:17.123Z,23.29
2018-06-02T11:53:50.240Z,23.26
2018-06-02T11:56:23.525Z,23.26
2018-06-02T11:58:56.506Z,23.22
2018-06-02T12:01:29.882Z,23.19
2018-06-02T12:04:03.922Z,23.18
2018-06-02T12:06:37.727Z,23.14
2018-06-02T12:09:11.738Z,23.14
2018-06-02T12:11:45.599Z,23.08
2018-06-02T12:14:18.352Z,22.96
2018-06-02T12:16:51.667Z,22.85
2018-06-02T12:19:24.578Z,22.79
2018-06-02T12:21:56.493Z,22.74
2018-06-02T12:24:29.481Z,22.73
2018-06-02T12:27:02.867Z,22.73
2018-06-02T12:29:36.880Z,22.75
2018-06-02T12:32:10.526Z,22.77
2018-06-02T12:34:43.531Z,22.81
2018-06-02T12:37:17.498Z,22.84
2018-06-02T12:39:51.910Z,22.81
2018-06-02T12:42:26.027Z,22.82
2018-06-02T12:44:59.048Z,22.83
2018-06-02T12:47:33.013Z,22.84
2018-06-02T12:50:08.062Z,22.86
2018-06-02T12:52:41.620Z,22.85
2018-06-02T12:55:13.512Z,22.85
2018-06-02T12:57:46.567Z,22.85
2018-06-02T13:00:20.239Z,22.86
2018-06-02T13:02:53.277Z,22.84
2018-06-02T13:05:26.889Z,22.85
2018-06-02T13:07:59.526Z,22.83
2018-06-02T13:10:33.887Z,22.82
2018-06-02T13:13:07.726Z,22.82
2018-06-02T13:15:41.237Z,22.81
2018-06-02T13:18:14.586Z,22.84
2018-06-02T13:20:46.509Z,22.85
2018-06-02T13:23:20.849Z,22.80
2018-06-02T13:25:54.258Z,22.79
2018-06-02T13:28:28.034Z,22.77
2018-06-02T13:31:02.510Z,22.72
2018-06-02T13:33:35.507Z,22.70
2018-06-02T13:36:08.709Z,22.69
2018-06-02T13:38:42.059Z,22.68
2018-06-02T13:41:15.251Z,22.70
2018-06-02T13:43:48.866Z,22.70
2018-06-02T13:46:22.210Z,22.71
2018-06-02T13:48:55.581Z,22.68
2018-06-02T13:51:27.511Z,22.69
2018-06-02T13:54:01.534Z,22.67
2018-06-02T13:56:35.267Z,22.64
2018-06-02T13:59:10.289Z,22.70
2018-06-02T14:01:44.348Z,22.75
2018-06-02T14:04:17.859Z,22.77
2018-06-02T14:09:46.801Z,22.72
2018-06-02T14:12:20.484Z,22.75
2018-06-02T14:14:54.572Z,22.76
2018-06-02T14:17:26.702Z,22.78
2018-06-02T14:19:59.603Z,22.80
2018-06-02T14:22:31.666Z,22.78
2018-06-02T14:25:03.822Z,22.77
2018-06-02T14:27:37.915Z,22.73
2018-06-02T14:30:11.566Z,22.74
2018-06-02T14:32:43.537Z,22.75
2018-06-02T14:35:16.236Z,22.77
2018-06-02T14:37:49.869Z,22.76
2018-06-02T14:40:26.085Z,22.77
2018-06-02T14:42:59.735Z,22.82
2018-06-02T14:45:33.209Z,22.83
2018-06-02T14:48:07.605Z,22.85
2018-06-02T14:50:40.746Z,22.87
2018-06-02T14:53:14.731Z,22.89
2018-06-02T14:55:47.686Z,22.92
2018-06-02T14:58:21.477Z,22.93
2018-06-02T15:00:56.471Z,22.96
2018-06-02T15:03:29.252Z,22.98
2018-06-02T15:06:02.732Z,22.99
2018-06-02T15:08:36.634Z,22.98
2018-06-02T15:11:08.691Z,23.01
2018-06-02T15:13:41.591Z,23.02
2018-06-02T15:16:13.403Z,23.03
2018-06-02T15:18:47.237Z,23.06
2018-06-02T15:21:20.216Z,23.09
2018-06-02T15:23:53.700Z,23.09
2018-06-02T15:26:26.549Z,23.09
2018-06-02T15:29:00.711Z,23.10
2018-06-02T15:31:34.921Z,23.15
2018-06-02T15:34:08.502Z,23.19
2018-06-02T15:36:41.766Z,23.18
2018-06-02T15:39:15.699Z,23.20
2018-06-02T15:41:49.695Z,23.23
2018-06-02T15:44:23.706Z,23.27
2018-06-02T15:46:57.509Z,23.28
2018-06-02T15:49:31.599Z,23.33
2018-06-02T15:52:05.483Z,23.38
2018-06-02T15:54:39.259Z,23.41
2018-06-02T15:57:17.704Z,23.42
2018-06-02T15:59:50.486Z,23.49
2018-06-02T16:02:26.066Z,23.59
2018-06-02T16:04:59.504Z,23.72
2018-06-02T16:07:32.244Z,23.78
2018-06-02T16:10:05.713Z,23.80
2018-06-02T16:12:39.713Z,23.88
2018-06-02T16:15:13.625Z,23.93
2018-06-02T16:17:45.990Z,23.99
2018-06-02T16:20:19.246Z,24.06
2018-06-02T16:22:52.566Z,24.06
2018-06-02T16:25:25.868Z,24.10
2018-06-02T16:27:59.888Z,24.12
2018-06-02T16:30:33.861Z,24.13
2018-06-02T16:33:07.503Z,24.14
2018-06-02T16:35:40.581Z,24.16
2018-06-02T16:38:12.508Z,24.19
2018-06-02T16:40:45.656Z,24.21
2018-06-02T16:43:17.715Z,24.23
2018-06-02T16:45:51.817Z,24.23
2018-06-02T16:48:25.766Z,24.27
2018-06-02T16:50:59.839Z,24.30
2018-06-02T16:53:32.282Z,24.33
2018-06-02T16:56:04.755Z,24.37
2018-06-02T16:58:38.549Z,24.40
2018-06-02T17:01:10.567Z,24.44
2018-06-02T17:03:43.631Z,24.48
2018-06-02T17:06:16.633Z,24.53
2018-06-02T17:08:49.924Z,24.59
2018-06-02T17:11:23.617Z,24.63
2018-06-02T17:13:55.874Z,24.67
2018-06-02T17:16:27.835Z,24.71
2018-06-02T17:19:01.549Z,24.76
2018-06-02T17:21:34.541Z,24.80
2018-06-02T17:24:07.626Z,24.85
2018-06-02T17:26:40.527Z,24.92
2018-06-02T17:29:15.027Z,24.98
2018-06-02T17:31:46.841Z,25.03
2018-06-02T17:34:20.544Z,25.09
2018-06-02T17:36:54.732Z,25.14
2018-06-02T17:39:28.358Z,25.19
2018-06-02T17:42:01.615Z,25.27
2018-06-02T17:44:35.845Z,25.33
2018-06-02T17:47:09.857Z,25.40
2018-06-02T17:49:43.594Z,25.45
2018-06-02T17:52:15.732Z,25.50
2018-06-02T17:54:49.855Z,25.55
2018-06-02T17:57:23.924Z,25.62
2018-06-02T17:59:57.568Z,25.69
2018-06-02T18:02:30.689Z,25.75
2018-06-02T18:05:05.491Z,25.82
2018-06-02T18:07:39.712Z,25.89
2018-06-02T18:10:13.930Z,25.96
2018-06-02T18:12:47.725Z,26.05
2018-06-02T18:15:21.571Z,26.12
2018-06-02T18:17:55.238Z,26.16
2018-06-02T18:20:28.728Z,26.24
2018-06-02T18:23:02.946Z,26.33
2018-06-02T18:25:36.754Z,26.39
2018-06-02T18:28:10.950Z,26.43
2018-06-02T18:30:43.757Z,26.47
2018-06-02T18:33:17.799Z,26.55
2018-06-02T18:35:51.616Z,26.64
2018-06-02T18:38:23.866Z,26.71
2018-06-02T18:44:15.789Z,26.45
2018-06-02T18:46:52.800Z,26.58
2018-06-02T18:49:30.568Z,26.60
2018-06-02T18:52:08.118Z,26.68
2018-06-02T18:54:45.551Z,26.69
2018-06-02T18:57:23.093Z,26.71
2018-06-02T18:59:59.433Z,26.73
2018-06-02T19:02:35.011Z,26.77
2018-06-02T19:05:11.827Z,26.85
2018-06-02T19:07:50.125Z,26.93
2018-06-02T19:10:28.602Z,27.02
2018-06-02T19:13:59.258Z,27.13
2018-06-02T19:16:37.106Z,27.23
2018-06-02T19:19:15.357Z,27.30
2018-06-02T19:21:52.080Z,27.39
2018-06-02T19:24:29.217Z,27.44
2018-06-02T19:27:05.836Z,27.53
2018-06-02T19:29:43.329Z,27.59
2018-06-02T19:32:20.783Z,27.68
2018-06-02T19:34:57.967Z,27.76
2018-06-02T19:37:35.280Z,27.85
2018-06-02T19:40:10.022Z,27.93
2018-06-02T19:42:46.758Z,27.99
2018-06-02T19:45:23.459Z,28.06
2018-06-02T19:48:00.096Z,28.14
2018-06-02T19:50:36.568Z,28.20
2018-06-02T19:53:13.777Z,28.29
2018-06-02T19:55:51.352Z,28.38
2018-06-02T19:58:29.337Z,28.47
2018-06-02T20:01:06.498Z,28.55
2018-06-02T20:03:43.914Z,28.63
2018-06-02T20:06:21.343Z,28.71
2018-06-02T20:08:59.650Z,28.77
2018-06-02T20:11:36.818Z,28.86
2018-06-02T20:14:14.446Z,28.95
2018-06-02T20:16:52.488Z,29.02
2018-06-02T20:19:29.251Z,29.11
2018-06-02T20:22:06.667Z,29.21
2018-06-02T20:24:44.244Z,29.26
2018-06-02T20:27:19.782Z,29.39
2018-06-02T20:29:58.318Z,29.47
2018-06-02T20:32:36.338Z,29.55
2018-06-02T20:35:13.298Z,29.59
2018-06-02T20:37:51.080Z,29.65
2018-06-02T20:40:28.524Z,29.74
2018-06-02T20:43:06.082Z,29.83
2018-06-02T20:45:41.410Z,29.88
2018-06-02T20:48:18.317Z,29.95
2018-06-02T20:50:56.348Z,30.04
2018-06-02T20:53:32.729Z,30.14
2018-06-02T20:56:10.089Z,30.22
2018-06-02T20:58:46.255Z,30.32
2018-06-02T21:01:23.509Z,30.39
2018-06-02T21:04:01.089Z,30.47
2018-06-02T21:06:38.084Z,30.55
2018-06-02T21:09:15.484Z,30.59
2018-06-02T21:11:52.281Z,30.70
2018-06-02T21:14:27.206Z,30.78
2018-06-02T21:17:04.094Z,30.85
2018-06-02T21:19:40.558Z,30.95
2018-06-02T21:22:14.793Z,31.07
2018-06-02T21:24:51.537Z,31.16
2018-06-02T21:27:28.091Z,31.24
2018-06-02T21:30:05.096Z,31.30
2018-06-02T21:32:42.287Z,31.37
2018-06-02T21:35:19.097Z,31.45
2018-06-02T21:37:56.418Z,31.53
2018-06-02T21:40:32.427Z,31.58
2018-06-02T21:43:09.418Z,31.64
2018-06-02T21:45:43.997Z,31.75
2018-06-02T21:51:06.739Z,31.83
2018-06-02T21:53:43.307Z,31.92
2018-06-02T21:56:20.085Z,31.98
2018-06-02T21:58:57.410Z,32.04
2018-06-02T22:04:17.404Z,32.15
2018-06-02T22:06:53.888Z,32.24
2018-06-02T22:09:31.092Z,32.32
2018-06-02T22:12:08.094Z,32.42
2018-06-02T22:14:45.092Z,32.48
2018-06-02T22:17:22.304Z,32.52
2018-06-02T22:19:59.748Z,32.59
2018-06-02T22:22:37.069Z,32.63
2018-06-02T22:25:13.902Z,32.67
2018-06-02T22:27:51.458Z,32.70
2018-06-02T22:30:28.091Z,32.75
2018-06-02T22:33:05.311Z,32.78
2018-06-02T22:35:42.484Z,32.82
2018-06-02T22:38:19.750Z,32.86
2018-06-02T22:40:58.072Z,32.90
2018-06-02T22:43:34.808Z,32.93
2018-06-02T22:46:12.094Z,32.96
2018-06-02T22:48:48.762Z,32.99
2018-06-02T22:52:33.831Z,33.00
2018-06-02T22:55:10.814Z,33.08
2018-06-02T22:57:47.416Z,33.09
2018-06-02T23:00:26.684Z,33.09
2018-06-02T23:03:03.563Z,33.11
2018-06-02T23:05:40.266Z,33.13
2018-06-02T23:08:17.211Z,33.15
2018-06-02T23:10:53.874Z,33.14
2018-06-02T23:13:31.287Z,33.16
2018-06-02T23:16:08.070Z,33.17
2018-06-02T23:18:43.866Z,33.17
2018-06-02T23:24:12.097Z,33.14
2018-06-02T23:26:48.091Z,33.18
2018-06-02T23:29:24.090Z,33.20
2018-06-02T23:32:00.090Z,33.21
2018-06-02T23:34:35.870Z,33.21
2018-06-02T23:37:11.097Z,33.20
2018-06-02T23:39:47.074Z,33.25
2018-06-02T23:42:22.750Z,33.25
2018-06-02T23:44:58.327Z,33.27
2018-06-02T23:47:34.211Z,33.30
2018-06-02T23:50:09.876Z,33.32
2018-06-02T23:52:45.483Z,33.34
2018-06-02T23:55:21.063Z,33.36
2018-06-02T23:57:57.206Z,33.37
